createdAt,value
2022-12-31T00:00:08.670Z,11.13
2022-12-31T00:02:36.101Z,11.10
2022-12-31T00:05:03.003Z,11.12
2022-12-31T00:07:29.436Z,11.07
2022-12-31T00:09:55.940Z,11.10
2022-12-31T00:12:22.428Z,11.09
2022-12-31T00:14:48.920Z,11.12
2022-12-31T00:17:15.378Z,11.20
2022-12-31T00:19:41.839Z,11.19
2022-12-31T00:22:08.358Z,11.17
2022-12-31T00:24:35.896Z,11.20
2022-12-31T00:27:02.572Z,11.20
2022-12-31T00:29:29.036Z,11.18
2022-12-31T00:31:55.586Z,11.27
2022-12-31T00:34:22.202Z,11.31
2022-12-31T00:36:48.943Z,11.31
2022-12-31T00:39:15.553Z,11.28
2022-12-31T00:41:43.921Z,11.28
2022-12-31T00:44:14.307Z,11.28
2022-12-31T00:49:06.678Z,11.03
2022-12-31T00:51:33.574Z,11.15
2022-12-31T00:54:00.780Z,11.31
2022-12-31T00:56:30.596Z,11.40
2022-12-31T00:58:58.961Z,11.40
2022-12-31T01:01:35.591Z,11.38
2022-12-31T01:04:08.907Z,11.33
2022-12-31T01:06:35.595Z,11.41
2022-12-31T01:09:02.322Z,11.44
2022-12-31T01:11:29.511Z,11.57
2022-12-31T01:14:16.272Z,11.57
2022-12-31T01:16:52.376Z,11.49
2022-12-31T01:19:27.382Z,11.57
2022-12-31T01:21:55.644Z,11.63
2022-12-31T01:24:22.978Z,11.65
2022-12-31T01:26:51.147Z,11.68
2022-12-31T01:29:17.895Z,11.63
2022-12-31T01:31:44.433Z,11.57
2022-12-31T01:34:11.045Z,11.61
2022-12-31T01:36:38.634Z,11.72
2022-12-31T01:39:08.118Z,11.73
2022-12-31T01:41:42.699Z,11.70
2022-12-31T01:44:11.809Z,11.72
2022-12-31T01:46:53.289Z,11.72
2022-12-31T01:49:29.841Z,11.76
2022-12-31T01:52:07.365Z,11.43
2022-12-31T01:54:43.095Z,11.67
2022-12-31T01:57:11.712Z,11.83
2022-12-31T01:59:38.619Z,11.92
2022-12-31T02:02:05.896Z,11.86
2022-12-31T02:04:32.595Z,11.90
2022-12-31T02:07:10.203Z,12.00
2022-12-31T02:09:40.172Z,11.94
2022-12-31T02:12:09.218Z,11.94
2022-12-31T02:14:49.949Z,12.01
2022-12-31T02:17:45.768Z,11.93
2022-12-31T02:20:54.519Z,11.87
2022-12-31T02:24:19.459Z,11.81
2022-12-31T02:27:03.209Z,11.87
2022-12-31T02:29:58.420Z,11.88
2022-12-31T02:32:31.744Z,11.89
2022-12-31T02:35:25.802Z,11.88
2022-12-31T02:38:01.455Z,11.89
2022-12-31T02:40:28.740Z,11.92
2022-12-31T02:42:55.858Z,11.95
2022-12-31T02:45:31.663Z,11.96
2022-12-31T02:48:16.165Z,11.96
2022-12-31T02:51:01.951Z,11.95
2022-12-31T02:54:01.107Z,11.98
2022-12-31T02:56:51.779Z,11.96
2022-12-31T02:59:56.471Z,12.06
2022-12-31T03:02:28.032Z,12.08
2022-12-31T03:04:57.217Z,12.09
2022-12-31T03:07:28.419Z,12.08
2022-12-31T03:09:55.635Z,12.16
2022-12-31T03:12:49.884Z,12.02
2022-12-31T03:15:22.751Z,12.08
2022-12-31T03:18:11.799Z,12.16
2022-12-31T03:21:04.310Z,12.12
2022-12-31T03:23:41.623Z,12.08
2022-12-31T03:26:11.671Z,12.15
2022-12-31T03:28:41.860Z,12.16
2022-12-31T03:31:09.735Z,12.20
2022-12-31T03:33:40.219Z,12.19
2022-12-31T03:36:11.514Z,12.12
2022-12-31T03:38:38.591Z,12.16
2022-12-31T03:41:05.602Z,12.20
2022-12-31T03:43:32.191Z,12.24
2022-12-31T03:46:01.151Z,12.21
2022-12-31T03:48:27.645Z,12.20
2022-12-31T03:50:54.168Z,12.23
2022-12-31T03:53:20.615Z,12.18
2022-12-31T03:55:52.584Z,12.00
2022-12-31T03:58:19.097Z,12.03
2022-12-31T04:00:45.619Z,12.01
2022-12-31T04:03:12.188Z,12.05
2022-12-31T04:05:38.961Z,12.09
2022-12-31T04:08:05.490Z,12.12
2022-12-31T04:10:31.982Z,12.27
2022-12-31T04:13:00.233Z,12.28
2022-12-31T04:15:26.734Z,12.32
2022-12-31T04:17:53.196Z,12.25
2022-12-31T04:20:19.716Z,12.28
2022-12-31T04:22:46.180Z,12.28
2022-12-31T04:25:12.942Z,12.33
2022-12-31T04:27:41.322Z,12.36
2022-12-31T04:30:09.023Z,12.33
2022-12-31T04:32:35.560Z,12.32
2022-12-31T04:35:02.039Z,12.24
2022-12-31T04:37:28.573Z,12.30
2022-12-31T04:39:58.973Z,12.31
2022-12-31T04:42:28.453Z,12.26
2022-12-31T04:44:54.889Z,12.27
2022-12-31T04:47:23.829Z,12.28
2022-12-31T04:49:50.631Z,12.34
2022-12-31T04:52:17.171Z,12.35
2022-12-31T04:54:43.828Z,12.31
2022-12-31T04:57:10.358Z,12.35
2022-12-31T04:59:36.854Z,12.35
2022-12-31T05:02:03.596Z,12.35
2022-12-31T05:04:30.269Z,12.36
2022-12-31T05:06:56.897Z,12.33
2022-12-31T05:09:24.175Z,12.29
2022-12-31T05:11:50.934Z,12.34
2022-12-31T05:14:17.519Z,12.38
2022-12-31T05:16:44.090Z,12.40
2022-12-31T05:19:10.649Z,12.41
2022-12-31T05:21:37.137Z,12.45
2022-12-31T05:24:03.827Z,12.44
2022-12-31T05:26:30.482Z,12.54
2022-12-31T05:28:57.015Z,12.60
2022-12-31T05:31:23.540Z,12.62
2022-12-31T05:33:50.043Z,12.61
2022-12-31T05:36:16.563Z,12.60
2022-12-31T05:38:43.027Z,12.66
2022-12-31T05:41:11.181Z,12.74
2022-12-31T05:43:39.754Z,12.70
2022-12-31T05:46:06.340Z,12.75
2022-12-31T05:48:33.034Z,12.75
2022-12-31T05:50:59.645Z,12.77
2022-12-31T05:53:26.158Z,12.65
2022-12-31T05:55:52.723Z,12.60
2022-12-31T05:58:19.278Z,12.67
2022-12-31T06:00:46.127Z,12.79
2022-12-31T06:03:13.375Z,12.76
2022-12-31T06:05:42.839Z,12.74
2022-12-31T06:08:11.298Z,12.78
2022-12-31T06:10:38.294Z,12.67
2022-12-31T06:13:04.982Z,12.71
2022-12-31T06:15:31.737Z,12.74
2022-12-31T06:17:58.305Z,12.80
2022-12-31T06:20:24.787Z,12.87
2022-12-31T06:22:51.273Z,12.93
2022-12-31T06:25:17.750Z,12.90
2022-12-31T06:27:44.265Z,13.04
2022-12-31T06:30:11.854Z,12.94
2022-12-31T06:32:39.307Z,12.95
2022-12-31T06:35:06.949Z,12.99
2022-12-31T06:37:33.473Z,12.96
2022-12-31T06:40:00.644Z,12.97
2022-12-31T06:42:31.407Z,12.89
2022-12-31T06:44:59.122Z,13.02
2022-12-31T06:47:26.243Z,12.95
2022-12-31T06:49:53.185Z,12.92
2022-12-31T06:52:20.498Z,12.89
2022-12-31T06:54:48.076Z,12.91
2022-12-31T06:57:15.664Z,12.96
2022-12-31T06:59:44.711Z,12.90
2022-12-31T07:02:21.638Z,12.87
2022-12-31T07:05:26.723Z,12.89
2022-12-31T07:08:31.622Z,12.88
2022-12-31T07:11:18.614Z,12.97
2022-12-31T07:14:05.475Z,12.72
2022-12-31T07:16:56.176Z,12.91
2022-12-31T07:19:38.932Z,12.87
2022-12-31T07:22:13.219Z,12.93
2022-12-31T07:24:40.543Z,13.03
2022-12-31T07:27:49.946Z,13.02
2022-12-31T07:30:28.146Z,13.04
2022-12-31T07:33:15.724Z,13.11
2022-12-31T07:36:05.379Z,13.20
2022-12-31T07:38:46.810Z,13.13
2022-12-31T07:41:22.153Z,13.10
2022-12-31T07:44:08.461Z,13.10
2022-12-31T07:46:57.435Z,13.08
2022-12-31T07:49:27.117Z,13.18
2022-12-31T07:51:54.836Z,13.27
2022-12-31T07:54:21.681Z,13.30
2022-12-31T07:56:50.677Z,13.40
2022-12-31T07:59:54.331Z,13.35
2022-12-31T08:03:17.178Z,13.21
2022-12-31T08:06:12.488Z,13.17
2022-12-31T08:08:58.686Z,13.15
2022-12-31T08:11:37.908Z,13.21
2022-12-31T08:14:11.728Z,13.06
2022-12-31T08:16:38.861Z,13.17
2022-12-31T08:19:06.183Z,13.27
2022-12-31T08:22:17.554Z,13.31
2022-12-31T08:25:02.075Z,13.33
2022-12-31T08:28:06.921Z,13.29
2022-12-31T08:30:38.504Z,13.36
2022-12-31T08:33:18.359Z,13.34
2022-12-31T08:36:33.191Z,13.40
2022-12-31T08:39:33.541Z,13.25
2022-12-31T08:42:05.659Z,13.31
2022-12-31T08:44:55.684Z,13.38
2022-12-31T08:48:08.416Z,13.36
2022-12-31T08:50:35.275Z,13.40
2022-12-31T08:53:02.352Z,13.37
2022-12-31T08:55:29.505Z,13.48
2022-12-31T08:58:45.267Z,13.48
2022-12-31T09:01:15.504Z,13.54
2022-12-31T09:04:22.501Z,13.45
2022-12-31T09:06:59.183Z,13.47
2022-12-31T09:09:57.782Z,13.52
2022-12-31T09:12:42.150Z,13.49
2022-12-31T09:15:21.122Z,13.58
2022-12-31T09:17:50.815Z,13.61
2022-12-31T09:20:41.774Z,13.82
2022-12-31T09:23:11.160Z,13.90
2022-12-31T09:25:55.772Z,13.85
2022-12-31T09:28:59.619Z,13.80
2022-12-31T09:31:40.339Z,13.84
2022-12-31T09:34:17.525Z,13.89
2022-12-31T09:36:50.694Z,13.86
2022-12-31T09:39:40.956Z,13.81
2022-12-31T09:42:35.168Z,13.69
2022-12-31T09:45:52.499Z,13.72
2022-12-31T09:48:50.589Z,13.73
2022-12-31T09:51:44.814Z,13.74
2022-12-31T09:55:05.107Z,13.77
2022-12-31T09:58:02.518Z,13.79
2022-12-31T10:00:43.426Z,13.79
2022-12-31T10:03:50.225Z,13.76
2022-12-31T10:06:23.100Z,13.86
2022-12-31T10:09:36.835Z,13.91
2022-12-31T10:12:53.502Z,13.88
2022-12-31T10:15:43.583Z,13.98
2022-12-31T10:18:50.155Z,13.99
2022-12-31T10:21:28.066Z,13.97
2022-12-31T10:24:47.452Z,14.03
2022-12-31T10:27:27.820Z,14.10
2022-12-31T10:30:20.431Z,14.19
2022-12-31T10:33:18.042Z,14.11
2022-12-31T10:35:59.548Z,14.26
2022-12-31T10:38:43.728Z,14.27
2022-12-31T10:41:58.198Z,14.28
2022-12-31T10:44:52.895Z,14.25
2022-12-31T10:47:47.419Z,14.15
2022-12-31T10:51:11.028Z,14.20
2022-12-31T10:54:26.687Z,14.08
2022-12-31T10:57:26.421Z,14.18
2022-12-31T11:00:38.875Z,14.29
2022-12-31T11:03:33.898Z,14.18
2022-12-31T11:06:40.505Z,14.26
2022-12-31T11:09:34.978Z,14.30
2022-12-31T11:12:38.789Z,14.34
2022-12-31T11:15:38.303Z,14.45
2022-12-31T11:18:30.411Z,14.41
2022-12-31T11:21:28.171Z,14.30
2022-12-31T11:24:07.316Z,14.36
2022-12-31T11:26:45.325Z,14.35
2022-12-31T11:29:28.691Z,14.43
2022-12-31T11:32:22.538Z,14.45
2022-12-31T11:35:23.184Z,14.46
2022-12-31T11:38:29.927Z,14.52
2022-12-31T11:41:07.911Z,14.46
2022-12-31T11:43:49.507Z,14.43
2022-12-31T11:46:50.980Z,14.35
2022-12-31T11:49:53.625Z,14.41
2022-12-31T11:52:54.303Z,14.50
2022-12-31T11:56:05.542Z,14.51
2022-12-31T11:58:32.204Z,14.56
2022-12-31T12:01:17.320Z,14.56
2022-12-31T12:03:45.483Z,14.68
2022-12-31T12:06:16.704Z,14.67
2022-12-31T12:08:45.720Z,14.77
2022-12-31T12:11:26.285Z,14.78
2022-12-31T12:13:53.110Z,14.81
2022-12-31T12:16:23.596Z,14.67
2022-12-31T12:19:07.277Z,14.58
2022-12-31T12:21:34.634Z,14.66
2022-12-31T12:24:26.853Z,14.63
2022-12-31T12:26:53.631Z,14.68
2022-12-31T12:29:35.131Z,14.66
2022-12-31T12:32:03.386Z,14.70
2022-12-31T12:34:39.479Z,14.74
2022-12-31T12:37:35.277Z,14.70
2022-12-31T12:40:19.027Z,14.69
2022-12-31T12:42:52.348Z,14.67
2022-12-31T12:45:25.001Z,14.75
2022-12-31T12:48:07.550Z,14.66
2022-12-31T12:50:47.097Z,14.72
2022-12-31T12:53:43.251Z,14.68
2022-12-31T12:56:37.046Z,14.79
2022-12-31T12:59:57.521Z,14.76
2022-12-31T13:02:48.618Z,14.63
2022-12-31T13:05:49.684Z,14.70
2022-12-31T13:08:43.301Z,14.83
2022-12-31T13:11:34.331Z,14.78
2022-12-31T13:14:15.720Z,14.70
2022-12-31T13:17:28.205Z,14.72
2022-12-31T13:20:08.859Z,14.79
2022-12-31T13:22:48.285Z,14.79
2022-12-31T13:25:34.967Z,14.76
2022-12-31T13:28:10.005Z,14.70
2022-12-31T13:30:49.237Z,14.77
2022-12-31T13:33:25.590Z,14.77
2022-12-31T13:35:59.850Z,14.51
2022-12-31T13:38:50.824Z,14.59
2022-12-31T13:41:39.804Z,14.63
2022-12-31T13:44:55.149Z,14.60
2022-12-31T13:47:40.730Z,14.51
2022-12-31T13:50:42.663Z,14.39
2022-12-31T13:53:20.636Z,14.34
2022-12-31T13:56:01.842Z,14.45
2022-12-31T13:58:53.096Z,14.41
2022-12-31T14:01:40.550Z,14.48
2022-12-31T14:04:25.152Z,14.46
2022-12-31T14:07:12.413Z,14.48
2022-12-31T14:09:39.007Z,14.58
2022-12-31T14:12:43.192Z,14.51
2022-12-31T14:15:33.316Z,14.61
2022-12-31T14:18:52.678Z,14.50
2022-12-31T14:22:02.662Z,14.57
2022-12-31T14:24:46.401Z,14.58
2022-12-31T14:27:34.684Z,14.54
2022-12-31T14:30:11.415Z,14.54
2022-12-31T14:33:21.375Z,14.54
2022-12-31T14:35:57.863Z,14.53
2022-12-31T14:39:07.451Z,14.48
2022-12-31T14:41:46.915Z,14.46
2022-12-31T14:45:05.236Z,14.40
2022-12-31T14:48:04.714Z,14.35
2022-12-31T14:50:34.566Z,14.35
2022-12-31T14:53:03.658Z,14.47
2022-12-31T14:55:33.968Z,14.44
2022-12-31T14:58:28.406Z,14.41
2022-12-31T15:01:04.315Z,14.38
2022-12-31T15:03:30.869Z,14.38
2022-12-31T15:06:24.712Z,14.31
2022-12-31T15:09:20.417Z,14.15
2022-12-31T15:12:08.370Z,14.02
2022-12-31T15:15:03.917Z,13.82
2022-12-31T15:17:57.281Z,13.72
2022-12-31T15:20:47.980Z,13.68
2022-12-31T15:23:44.776Z,13.49
2022-12-31T15:26:28.330Z,13.44
2022-12-31T15:29:03.905Z,13.39
2022-12-31T15:31:35.267Z,13.44
2022-12-31T15:34:23.448Z,13.48
2022-12-31T15:37:00.749Z,13.38
2022-12-31T15:39:32.901Z,13.36
2022-12-31T15:42:36.854Z,13.42
2022-12-31T15:45:03.901Z,13.36
2022-12-31T15:47:38.652Z,13.32
2022-12-31T15:50:18.799Z,13.31
2022-12-31T15:52:53.699Z,13.40
2022-12-31T15:55:50.896Z,13.27
2022-12-31T15:58:25.090Z,13.38
2022-12-31T16:01:15.557Z,13.34
2022-12-31T16:03:59.497Z,13.38
2022-12-31T16:06:30.320Z,13.32
2022-12-31T16:08:57.668Z,13.34
2022-12-31T16:11:24.945Z,13.36
2022-12-31T16:13:56.684Z,13.37
2022-12-31T16:16:26.591Z,13.38
2022-12-31T16:18:53.992Z,13.32
2022-12-31T16:21:34.325Z,13.19
2022-12-31T16:24:23.110Z,13.09
2022-12-31T16:26:54.945Z,13.02
2022-12-31T16:29:24.039Z,13.12
2022-12-31T16:31:53.735Z,12.93
2022-12-31T16:34:25.465Z,13.02
2022-12-31T16:37:02.262Z,13.00
2022-12-31T16:39:58.829Z,12.99
2022-12-31T16:42:29.228Z,12.89
2022-12-31T16:44:57.506Z,12.86
2022-12-31T16:47:31.057Z,12.89
2022-12-31T16:50:21.869Z,12.74
2022-12-31T16:52:57.785Z,12.85
2022-12-31T16:55:28.664Z,12.80
2022-12-31T16:58:14.669Z,12.62
2022-12-31T17:00:42.900Z,12.53
2022-12-31T17:03:25.122Z,12.50
2022-12-31T17:06:12.392Z,12.55
2022-12-31T17:08:45.970Z,12.56
2022-12-31T17:11:36.436Z,12.50
2022-12-31T17:14:05.619Z,12.46
2022-12-31T17:16:38.726Z,12.43
2022-12-31T17:19:05.844Z,12.47
2022-12-31T17:21:33.392Z,12.51
2022-12-31T17:24:07.171Z,12.51
2022-12-31T17:26:38.303Z,12.55
2022-12-31T17:29:05.811Z,12.64
2022-12-31T17:31:37.342Z,12.61
2022-12-31T17:34:22.199Z,12.42
2022-12-31T17:37:18.285Z,12.45
2022-12-31T17:39:54.180Z,12.37
2022-12-31T17:42:36.730Z,12.36
2022-12-31T17:45:15.403Z,12.36
2022-12-31T17:47:50.921Z,12.27
2022-12-31T17:50:26.895Z,12.38
2022-12-31T17:53:02.550Z,12.34
2022-12-31T17:55:29.473Z,12.40
2022-12-31T17:57:57.824Z,12.53
2022-12-31T18:00:27.419Z,12.45
2022-12-31T18:02:54.037Z,12.38
2022-12-31T18:05:24.347Z,12.44
2022-12-31T18:07:51.799Z,12.43
2022-12-31T18:10:23.951Z,12.43
2022-12-31T18:12:50.861Z,12.43
2022-12-31T18:15:21.903Z,12.35
2022-12-31T18:17:49.289Z,12.29
2022-12-31T18:20:16.358Z,12.32
2022-12-31T18:22:44.990Z,12.29
2022-12-31T18:25:21.142Z,12.28
2022-12-31T18:27:49.660Z,12.29
2022-12-31T18:30:16.884Z,12.32
2022-12-31T18:32:45.877Z,12.33
2022-12-31T18:36:06.603Z,12.31
2022-12-31T18:38:13.388Z,12.23
2022-12-31T18:40:44.231Z,12.27
2022-12-31T18:43:17.297Z,12.09
2022-12-31T18:45:46.255Z,12.04
2022-12-31T18:48:13.342Z,12.11
2022-12-31T18:50:40.962Z,12.06
2022-12-31T18:53:17.749Z,12.08
2022-12-31T18:55:54.655Z,12.04
2022-12-31T18:58:24.579Z,12.07
2022-12-31T19:00:52.223Z,12.10
2022-12-31T19:03:23.106Z,12.09
2022-12-31T19:05:51.180Z,12.07
2022-12-31T19:08:19.806Z,12.02
2022-12-31T19:10:48.273Z,12.05
2022-12-31T19:13:17.631Z,11.99
2022-12-31T19:15:53.008Z,11.99
2022-12-31T19:18:19.763Z,12.02
2022-12-31T19:20:46.861Z,12.04
2022-12-31T19:23:20.352Z,12.06
2022-12-31T19:25:49.274Z,12.06
2022-12-31T19:28:23.408Z,11.98
2022-12-31T19:30:50.564Z,12.01
2022-12-31T19:33:18.152Z,11.96
2022-12-31T19:35:45.580Z,11.91
2022-12-31T19:38:17.591Z,11.90
2022-12-31T19:40:44.349Z,11.92
2022-12-31T19:43:17.306Z,11.87
2022-12-31T19:45:45.280Z,11.86
2022-12-31T19:48:25.860Z,11.81
2022-12-31T19:50:56.974Z,11.76
2022-12-31T19:53:27.091Z,11.88
2022-12-31T19:55:54.121Z,11.90
2022-12-31T19:58:26.331Z,11.89
2022-12-31T20:01:02.022Z,11.91
2022-12-31T20:03:31.533Z,11.93
2022-12-31T20:06:08.702Z,11.90
2022-12-31T20:08:38.598Z,11.98
2022-12-31T20:11:21.409Z,11.94
2022-12-31T20:13:50.123Z,11.94
2022-12-31T20:16:20.009Z,11.93
2022-12-31T20:18:48.289Z,11.90
2022-12-31T20:21:19.288Z,11.89
2022-12-31T20:23:46.892Z,11.89
2022-12-31T20:26:14.345Z,12.00
2022-12-31T20:28:40.960Z,12.06
2022-12-31T20:31:15.533Z,11.99
2022-12-31T20:33:42.867Z,12.03
2022-12-31T20:36:13.701Z,11.91
2022-12-31T20:38:40.533Z,11.82
2022-12-31T20:41:20.096Z,11.69
2022-12-31T20:43:47.986Z,11.74
2022-12-31T20:46:25.296Z,11.68
2022-12-31T20:48:55.730Z,11.75
2022-12-31T20:51:23.908Z,11.69
2022-12-31T20:53:59.260Z,11.78
2022-12-31T20:56:29.614Z,11.79
2022-12-31T20:58:56.933Z,11.87
2022-12-31T21:01:25.481Z,11.87
2022-12-31T21:04:05.033Z,11.83
2022-12-31T21:06:33.628Z,11.82
2022-12-31T21:09:04.081Z,11.86
2022-12-31T21:11:49.523Z,11.86
2022-12-31T21:14:16.241Z,11.85
2022-12-31T21:16:42.784Z,11.89
2022-12-31T21:19:10.029Z,11.93
2022-12-31T21:21:37.249Z,11.85
2022-12-31T21:24:04.200Z,11.84
2022-12-31T21:26:30.821Z,11.83
2022-12-31T21:28:57.589Z,11.89
2022-12-31T21:31:24.184Z,11.89
2022-12-31T21:33:50.764Z,11.88
2022-12-31T21:36:17.319Z,11.90
2022-12-31T21:38:44.461Z,11.94
2022-12-31T21:41:34.934Z,11.88
2022-12-31T21:44:02.548Z,11.87
2022-12-31T21:46:29.418Z,11.97
2022-12-31T21:49:00.408Z,12.06
2022-12-31T21:51:28.635Z,12.01
2022-12-31T21:53:55.276Z,11.87
2022-12-31T21:56:22.699Z,11.87
2022-12-31T21:59:14.770Z,11.79
2022-12-31T22:02:01.610Z,11.78
2022-12-31T22:05:00.846Z,11.75
2022-12-31T22:07:15.228Z,11.68
2022-12-31T22:09:41.753Z,11.62
2022-12-31T22:12:08.256Z,11.54
2022-12-31T22:14:34.918Z,11.56
2022-12-31T22:17:01.364Z,11.52
2022-12-31T22:19:27.876Z,11.42
2022-12-31T22:21:54.359Z,11.51
2022-12-31T22:24:20.834Z,11.39
2022-12-31T22:26:47.354Z,11.35
2022-12-31T22:29:14.134Z,11.29
2022-12-31T22:31:40.777Z,11.29
2022-12-31T22:34:07.471Z,11.32
2022-12-31T22:36:33.961Z,11.28
2022-12-31T22:39:00.577Z,11.34
2022-12-31T22:41:28.247Z,11.33
2022-12-31T22:44:03.029Z,11.41
2022-12-31T22:46:30.153Z,11.51
2022-12-31T22:48:59.174Z,11.35
2022-12-31T22:51:30.526Z,11.40
2022-12-31T22:54:14.150Z,11.25
2022-12-31T22:56:40.867Z,11.39
2022-12-31T22:59:07.383Z,11.45
2022-12-31T23:01:34.357Z,11.41
2022-12-31T23:04:01.079Z,11.35
2022-12-31T23:06:28.683Z,11.35
2022-12-31T23:09:15.499Z,11.43
2022-12-31T23:11:43.200Z,11.40
2022-12-31T23:14:35.427Z,11.49
2022-12-31T23:17:29.474Z,11.59
2022-12-31T23:20:17.338Z,11.58
2022-12-31T23:23:02.526Z,11.60
2022-12-31T23:25:33.078Z,11.61
2022-12-31T23:27:59.586Z,11.60
2022-12-31T23:30:26.400Z,11.49
2022-12-31T23:32:52.869Z,11.51
2022-12-31T23:35:19.371Z,11.42
2022-12-31T23:37:45.861Z,11.34
2022-12-31T23:40:20.612Z,11.31
2022-12-31T23:42:48.079Z,11.32
2022-12-31T23:45:14.771Z,11.34
2022-12-31T23:47:41.401Z,11.30
2022-12-31T23:50:08.617Z,11.28
2022-12-31T23:52:35.283Z,11.23
2022-12-31T23:55:03.481Z,11.24
2022-12-31T23:57:30.036Z,11.37
2022-12-31T23:59:56.547Z,11.31
